createdAt,value
2018-12-20T00:00:15.994Z,2.57
2018-12-20T00:02:43.563Z,2.58
2018-12-20T00:05:11.192Z,2.56
2018-12-20T00:07:38.687Z,2.49
2018-12-20T00:10:06.414Z,2.51
2018-12-20T00:12:34.023Z,2.48
2018-12-20T00:15:01.795Z,2.50
2018-12-20T00:17:50.500Z,2.45
2018-12-20T00:20:18.084Z,2.47
2018-12-20T00:22:45.650Z,2.55
2018-12-20T00:25:13.219Z,2.52
2018-12-20T00:27:40.869Z,2.50
2018-12-20T00:30:08.374Z,2.51
2018-12-20T00:32:35.850Z,2.52
2018-12-20T00:35:03.368Z,2.49
2018-12-20T00:37:30.899Z,2.59
2018-12-20T00:40:06.270Z,2.56
2018-12-20T00:42:28.655Z,2.53
2018-12-20T00:44:56.140Z,2.48
2018-12-20T00:47:23.605Z,2.48
2018-12-20T00:49:51.209Z,2.56
2018-12-20T00:52:18.740Z,2.52
2018-12-20T00:54:46.177Z,2.58
2018-12-20T00:57:13.748Z,2.53
2018-12-20T00:59:41.459Z,2.48
2018-12-20T01:02:09.070Z,2.63
2018-12-20T01:04:36.633Z,2.52
2018-12-20T01:07:04.221Z,2.58
2018-12-20T01:09:31.815Z,2.57
2018-12-20T01:11:59.390Z,2.51
2018-12-20T01:14:26.999Z,2.52
2018-12-20T01:16:54.442Z,2.44
2018-12-20T01:19:21.936Z,2.50
2018-12-20T01:21:49.681Z,2.56
2018-12-20T01:24:17.242Z,2.50
2018-12-20T01:26:44.753Z,2.52
2018-12-20T01:29:12.264Z,2.53
2018-12-20T01:31:39.705Z,2.45
2018-12-20T01:34:07.213Z,2.52
2018-12-20T01:36:34.843Z,2.51
2018-12-20T01:39:02.888Z,2.54
2018-12-20T01:41:30.320Z,2.54
2018-12-20T01:43:57.824Z,2.54
2018-12-20T01:46:25.496Z,2.57
2018-12-20T01:48:53.067Z,2.50
2018-12-20T01:51:20.690Z,2.54
2018-12-20T01:53:48.522Z,2.51
2018-12-20T01:56:16.149Z,2.51
2018-12-20T01:58:43.835Z,2.51
2018-12-20T02:01:11.619Z,2.43
2018-12-20T02:03:39.140Z,2.46
2018-12-20T02:06:06.585Z,2.43
2018-12-20T02:08:34.072Z,2.45
2018-12-20T02:11:01.566Z,2.46
2018-12-20T02:13:29.079Z,2.51
2018-12-20T02:15:56.580Z,2.47
2018-12-20T02:18:24.125Z,2.54
2018-12-20T02:20:51.718Z,2.44
2018-12-20T02:23:19.410Z,2.31
2018-12-20T02:25:46.984Z,2.38
2018-12-20T02:28:14.530Z,2.39
2018-12-20T02:30:42.078Z,2.42
2018-12-20T02:33:09.540Z,2.34
2018-12-20T02:35:37.064Z,2.38
2018-12-20T02:38:04.885Z,2.32
2018-12-20T02:40:32.477Z,2.34
2018-12-20T02:43:00.179Z,2.37
2018-12-20T02:45:27.783Z,2.31
2018-12-20T02:47:55.448Z,2.34
2018-12-20T02:50:22.953Z,2.34
2018-12-20T02:52:50.515Z,2.36
2018-12-20T02:55:18.362Z,2.30
2018-12-20T02:57:46.182Z,2.29
2018-12-20T03:00:13.767Z,2.37
2018-12-20T03:02:41.458Z,2.28
2018-12-20T03:05:08.970Z,2.21
2018-12-20T03:07:36.462Z,2.26
2018-12-20T03:10:03.957Z,2.33
2018-12-20T03:12:31.524Z,2.36
2018-12-20T03:14:59.081Z,2.32
2018-12-20T03:17:26.528Z,2.24
2018-12-20T03:19:53.988Z,2.25
2018-12-20T03:22:21.670Z,2.21
2018-12-20T03:24:49.227Z,2.20
2018-12-20T03:27:16.748Z,2.24
2018-12-20T03:29:44.387Z,2.21
2018-12-20T03:32:12.241Z,2.22
2018-12-20T03:34:39.896Z,2.17
2018-12-20T03:37:07.448Z,2.10
2018-12-20T03:39:34.896Z,2.08
2018-12-20T03:42:02.413Z,2.12
2018-12-20T03:44:30.019Z,2.17
2018-12-20T03:46:57.570Z,2.19
2018-12-20T03:49:25.192Z,2.17
2018-12-20T03:51:52.895Z,2.14
2018-12-20T03:54:20.441Z,2.13
2018-12-20T03:56:48.055Z,2.13
2018-12-20T03:59:15.941Z,2.07
2018-12-20T04:01:43.473Z,2.10
2018-12-20T04:04:10.954Z,2.03
2018-12-20T04:06:38.452Z,2.09
2018-12-20T04:09:06.237Z,2.09
2018-12-20T04:11:33.778Z,2.07
2018-12-20T04:14:01.425Z,1.95
2018-12-20T04:16:28.904Z,2.01
2018-12-20T04:18:56.601Z,2.09
2018-12-20T04:21:24.113Z,2.10
2018-12-20T04:23:51.825Z,2.00
2018-12-20T04:26:19.475Z,1.95
2018-12-20T04:28:47.045Z,1.91
2018-12-20T04:31:14.887Z,1.93
2018-12-20T04:33:42.701Z,1.84
2018-12-20T04:36:10.322Z,1.91
2018-12-20T04:38:38.047Z,1.83
2018-12-20T04:41:05.685Z,1.85
2018-12-20T04:43:33.233Z,1.90
2018-12-20T04:46:00.731Z,1.89
2018-12-20T04:48:28.263Z,1.92
2018-12-20T04:50:55.727Z,1.79
2018-12-20T04:53:23.173Z,1.86
2018-12-20T04:55:50.645Z,1.87
2018-12-20T04:58:18.120Z,1.77
2018-12-20T05:00:46.252Z,1.84
2018-12-20T05:03:13.940Z,1.74
2018-12-20T05:05:41.397Z,1.80
2018-12-20T05:08:08.941Z,1.80
2018-12-20T05:10:36.464Z,1.75
2018-12-20T05:13:03.897Z,1.71
2018-12-20T05:15:31.347Z,1.73
2018-12-20T05:17:58.846Z,1.68
2018-12-20T05:20:26.317Z,1.71
2018-12-20T05:22:53.885Z,1.70
2018-12-20T05:25:21.414Z,1.65
2018-12-20T05:27:49.081Z,1.71
2018-12-20T05:30:16.679Z,1.75
2018-12-20T05:32:44.347Z,1.60
2018-12-20T05:35:12.142Z,1.68
2018-12-20T05:37:39.896Z,1.62
2018-12-20T05:40:07.520Z,1.57
2018-12-20T05:42:35.011Z,1.54
2018-12-20T05:45:02.520Z,1.61
2018-12-20T05:47:30.158Z,1.68
2018-12-20T05:49:57.682Z,1.54
2018-12-20T05:52:25.125Z,1.61
2018-12-20T05:54:52.556Z,1.63
2018-12-20T05:57:20.017Z,1.69
2018-12-20T05:59:47.483Z,1.73
2018-12-20T06:02:15.015Z,1.67
2018-12-20T06:04:42.763Z,1.58
2018-12-20T06:07:10.327Z,1.63
2018-12-20T06:09:37.904Z,1.69
2018-12-20T06:12:05.614Z,1.60
2018-12-20T06:14:33.248Z,1.59
2018-12-20T06:17:00.904Z,1.50
2018-12-20T06:19:28.658Z,1.47
2018-12-20T06:21:56.116Z,1.54
2018-12-20T06:24:23.563Z,1.39
2018-12-20T06:26:50.996Z,1.45
2018-12-20T06:29:18.436Z,1.47
2018-12-20T06:31:45.874Z,1.34
2018-12-20T06:34:13.309Z,1.44
2018-12-20T06:36:40.770Z,1.33
2018-12-20T06:39:08.213Z,1.35
2018-12-20T06:41:35.637Z,1.36
2018-12-20T06:44:07.136Z,1.40
2018-12-20T06:46:32.502Z,1.37
2018-12-20T06:48:59.954Z,1.43
2018-12-20T06:51:27.389Z,1.38
2018-12-20T06:53:54.913Z,1.42
2018-12-20T06:56:22.353Z,1.48
2018-12-20T06:58:49.792Z,1.50
2018-12-20T07:01:17.240Z,1.44
2018-12-20T07:03:44.683Z,1.43
2018-12-20T07:06:12.117Z,1.38
2018-12-20T07:08:39.564Z,1.43
2018-12-20T07:11:06.999Z,1.49
2018-12-20T07:13:34.439Z,1.41
2018-12-20T07:16:01.872Z,1.37
2018-12-20T07:18:29.396Z,1.45
2018-12-20T07:20:56.834Z,1.35
2018-12-20T07:23:24.271Z,1.37
2018-12-20T07:25:51.717Z,1.44
2018-12-20T07:28:19.164Z,1.42
2018-12-20T07:30:46.609Z,1.42
2018-12-20T07:33:14.048Z,1.53
2018-12-20T07:35:41.485Z,1.59
2018-12-20T07:38:08.941Z,1.86
2018-12-20T07:40:38.159Z,1.82
2018-12-20T07:43:05.727Z,1.84
2018-12-20T07:45:33.154Z,1.76
2018-12-20T07:48:00.632Z,1.86
2018-12-20T07:50:28.080Z,1.80
2018-12-20T07:52:55.532Z,1.86
2018-12-20T07:55:22.989Z,1.96
2018-12-20T07:57:50.438Z,1.87
2018-12-20T08:00:17.885Z,1.76
2018-12-20T08:02:45.333Z,1.83
2018-12-20T08:05:12.781Z,1.89
2018-12-20T08:07:40.221Z,1.84
2018-12-20T08:10:07.680Z,1.79
2018-12-20T08:12:35.108Z,1.72
2018-12-20T08:15:02.559Z,1.73
2018-12-20T08:17:29.993Z,1.76
2018-12-20T08:19:57.446Z,1.70
2018-12-20T08:22:24.888Z,1.69
2018-12-20T08:24:52.329Z,1.72
2018-12-20T08:27:19.823Z,1.67
2018-12-20T08:29:47.383Z,1.63
2018-12-20T08:32:14.892Z,1.66
2018-12-20T08:34:42.336Z,1.73
2018-12-20T08:37:09.801Z,1.74
2018-12-20T08:39:37.239Z,1.75
2018-12-20T08:42:04.696Z,1.81
2018-12-20T08:44:32.132Z,1.75
2018-12-20T08:46:59.577Z,1.84
2018-12-20T08:49:27.013Z,1.87
2018-12-20T08:51:54.452Z,1.94
2018-12-20T08:54:21.892Z,1.89
2018-12-20T08:56:49.328Z,1.93
2018-12-20T08:59:16.782Z,1.88
2018-12-20T09:01:44.212Z,1.86
2018-12-20T09:04:11.669Z,1.86
2018-12-20T09:06:39.106Z,1.99
2018-12-20T09:09:06.544Z,2.04
2018-12-20T09:11:33.986Z,1.99
2018-12-20T09:14:01.438Z,1.99
2018-12-20T09:16:28.868Z,2.01
2018-12-20T09:18:56.366Z,2.04
2018-12-20T09:21:23.855Z,2.10
2018-12-20T09:23:51.285Z,2.09
2018-12-20T09:26:18.729Z,2.10
2018-12-20T09:28:46.169Z,2.10
2018-12-20T09:31:13.609Z,2.08
2018-12-20T09:33:41.056Z,2.13
2018-12-20T09:36:08.496Z,2.11
2018-12-20T09:38:35.965Z,2.13
2018-12-20T09:41:03.439Z,2.21
2018-12-20T09:43:30.933Z,2.20
2018-12-20T09:45:58.368Z,2.23
2018-12-20T09:48:25.804Z,2.16
2018-12-20T09:50:53.257Z,2.31
2018-12-20T09:53:20.717Z,2.22
2018-12-20T09:55:48.156Z,2.13
2018-12-20T09:58:15.602Z,2.10
2018-12-20T10:00:43.045Z,2.14
2018-12-20T10:03:10.475Z,2.10
2018-12-20T10:05:37.940Z,2.17
2018-12-20T10:08:05.372Z,2.26
2018-12-20T10:10:32.831Z,2.36
2018-12-20T10:13:00.282Z,2.40
2018-12-20T10:15:27.731Z,2.34
2018-12-20T10:17:55.169Z,2.36
2018-12-20T10:20:22.604Z,2.42
2018-12-20T10:22:50.045Z,2.43
2018-12-20T10:25:17.484Z,2.38
2018-12-20T10:27:44.924Z,2.45
2018-12-20T10:30:12.360Z,2.45
2018-12-20T10:32:39.796Z,2.41
2018-12-20T10:35:07.232Z,2.37
2018-12-20T10:37:34.668Z,2.46
2018-12-20T10:40:02.121Z,2.47
2018-12-20T10:42:29.557Z,2.51
2018-12-20T10:44:57.010Z,2.54
2018-12-20T10:47:29.144Z,2.51
2018-12-20T10:49:55.156Z,2.53
2018-12-20T10:52:22.593Z,2.54
2018-12-20T10:54:50.038Z,2.68
2018-12-20T10:57:17.473Z,2.67
2018-12-20T10:59:44.921Z,2.73
2018-12-20T11:02:17.737Z,2.72
2018-12-20T11:04:50.583Z,2.76
2018-12-20T11:07:23.404Z,2.86
2018-12-20T11:09:56.261Z,2.96
2018-12-20T11:12:29.312Z,3.04
2018-12-20T11:14:56.760Z,3.10
2018-12-20T11:17:24.193Z,3.16
2018-12-20T11:19:51.645Z,3.17
2018-12-20T11:22:19.080Z,3.22
2018-12-20T11:24:46.526Z,3.36
2018-12-20T11:27:14.020Z,3.46
2018-12-20T11:29:41.492Z,3.36
2018-12-20T11:32:08.949Z,3.21
2018-12-20T11:34:36.404Z,3.38
2018-12-20T11:37:03.841Z,3.24
2018-12-20T11:39:31.289Z,3.24
2018-12-20T11:41:58.749Z,3.23
2018-12-20T11:44:26.265Z,3.33
2018-12-20T11:46:53.700Z,3.10
2018-12-20T11:49:21.152Z,3.20
2018-12-20T11:51:48.605Z,3.20
2018-12-20T11:54:16.024Z,3.19
2018-12-20T11:56:43.532Z,3.17
2018-12-20T11:59:10.976Z,3.17
2018-12-20T12:01:38.428Z,3.18
2018-12-20T12:04:05.940Z,3.30
2018-12-20T12:06:33.381Z,3.31
2018-12-20T12:09:00.823Z,3.27
2018-12-20T12:11:28.264Z,3.37
2018-12-20T12:13:55.704Z,3.41
2018-12-20T12:16:23.149Z,3.34
2018-12-20T12:18:50.582Z,3.45
2018-12-20T12:21:18.035Z,3.44
2018-12-20T12:23:45.491Z,3.41
2018-12-20T12:26:12.929Z,3.54
2018-12-20T12:28:40.368Z,3.63
2018-12-20T12:31:07.809Z,3.61
2018-12-20T12:33:35.261Z,3.67
2018-12-20T12:36:02.708Z,3.51
2018-12-20T12:38:30.146Z,3.60
2018-12-20T12:40:57.608Z,3.65
2018-12-20T12:43:25.060Z,3.68
2018-12-20T12:45:52.505Z,3.62
2018-12-20T12:48:19.938Z,3.50
2018-12-20T12:50:47.391Z,3.53
2018-12-20T12:53:14.845Z,3.42
2018-12-20T12:55:42.293Z,3.49
2018-12-20T12:58:09.772Z,3.56
2018-12-20T13:00:37.220Z,3.54
2018-12-20T13:03:04.668Z,3.38
2018-12-20T13:05:32.114Z,3.46
2018-12-20T13:07:59.553Z,3.47
2018-12-20T13:10:26.991Z,3.52
2018-12-20T13:12:54.444Z,3.43
2018-12-20T13:15:21.895Z,3.48
2018-12-20T13:17:49.321Z,3.47
2018-12-20T13:20:16.769Z,3.45
2018-12-20T13:22:44.220Z,3.42
2018-12-20T13:25:11.705Z,3.38
2018-12-20T13:27:39.173Z,3.37
2018-12-20T13:30:06.618Z,3.41
2018-12-20T13:32:34.066Z,3.45
2018-12-20T13:35:01.517Z,3.49
2018-12-20T13:37:29.032Z,3.44
2018-12-20T13:39:56.468Z,3.52
2018-12-20T13:42:23.916Z,3.48
2018-12-20T13:44:51.360Z,3.50
2018-12-20T13:47:18.876Z,3.47
2018-12-20T13:49:46.523Z,3.56
2018-12-20T13:52:13.972Z,3.52
2018-12-20T13:54:41.414Z,3.52
2018-12-20T13:57:08.852Z,3.44
2018-12-20T13:59:36.298Z,3.46
2018-12-20T14:02:03.749Z,3.45
2018-12-20T14:04:31.188Z,3.44
2018-12-20T14:06:58.644Z,3.34
2018-12-20T14:09:27.045Z,3.37
2018-12-20T14:11:54.530Z,3.42
2018-12-20T14:14:21.984Z,3.33
2018-12-20T14:16:49.421Z,3.28
2018-12-20T14:19:17.104Z,3.41
2018-12-20T14:21:44.540Z,3.43
2018-12-20T14:24:11.990Z,3.38
2018-12-20T14:26:39.436Z,3.38
2018-12-20T14:29:06.868Z,3.27
2018-12-20T14:31:34.393Z,3.34
2018-12-20T14:34:01.837Z,3.32
2018-12-20T14:36:29.307Z,3.36
2018-12-20T14:38:56.790Z,3.23
2018-12-20T14:41:24.240Z,3.20
2018-12-20T14:43:51.694Z,3.15
2018-12-20T14:46:19.136Z,3.20
2018-12-20T14:48:46.598Z,3.24
2018-12-20T14:51:14.029Z,3.26
2018-12-20T14:53:41.477Z,3.09
2018-12-20T14:56:08.925Z,3.08
2018-12-20T14:58:36.360Z,3.12
2018-12-20T15:01:03.823Z,3.11
2018-12-20T15:03:31.874Z,3.10
2018-12-20T15:05:59.319Z,3.10
2018-12-20T15:08:26.759Z,3.10
2018-12-20T15:10:54.196Z,3.15
2018-12-20T15:13:21.633Z,3.09
2018-12-20T15:15:49.072Z,3.05
2018-12-20T15:18:16.520Z,3.09
2018-12-20T15:20:44.040Z,3.10
2018-12-20T15:23:11.484Z,3.17
2018-12-20T15:25:39.071Z,3.20
2018-12-20T15:28:06.512Z,3.23
2018-12-20T15:30:33.948Z,3.25
2018-12-20T15:33:01.404Z,3.24
2018-12-20T15:35:28.898Z,3.26
2018-12-20T15:37:56.336Z,3.20
2018-12-20T15:40:23.777Z,3.32
2018-12-20T15:42:51.229Z,3.34
2018-12-20T15:45:18.846Z,3.35
2018-12-20T15:47:46.353Z,3.50
2018-12-20T15:50:13.778Z,3.52
2018-12-20T15:52:41.229Z,3.42
2018-12-20T15:55:08.669Z,3.57
2018-12-20T15:57:36.109Z,3.57
2018-12-20T16:00:03.562Z,3.50
2018-12-20T16:02:31.001Z,3.53
2018-12-20T16:04:58.438Z,3.52
2018-12-20T16:07:25.880Z,3.55
2018-12-20T16:09:53.336Z,3.57
2018-12-20T16:12:20.774Z,3.53
2018-12-20T16:14:48.216Z,3.57
2018-12-20T16:17:15.660Z,3.45
2018-12-20T16:19:43.100Z,3.48
2018-12-20T16:22:10.548Z,3.54
2018-12-20T16:24:38.002Z,3.55
2018-12-20T16:27:05.448Z,3.56
2018-12-20T16:29:32.883Z,3.63
2018-12-20T16:32:00.329Z,3.54
2018-12-20T16:34:27.773Z,3.47
2018-12-20T16:36:55.219Z,3.47
2018-12-20T16:39:22.700Z,3.51
2018-12-20T16:41:50.148Z,3.53
2018-12-20T16:44:17.594Z,3.55
2018-12-20T16:46:45.097Z,3.47
2018-12-20T16:49:13.777Z,3.43
2018-12-20T16:51:41.557Z,3.45
2018-12-20T16:54:09.004Z,3.53
2018-12-20T16:56:36.436Z,3.53
2018-12-20T16:59:03.878Z,3.46
2018-12-20T17:01:31.328Z,3.49
2018-12-20T17:03:58.772Z,3.45
2018-12-20T17:06:26.215Z,3.37
2018-12-20T17:08:53.725Z,3.43
2018-12-20T17:11:21.164Z,3.47
2018-12-20T17:13:48.603Z,3.44
2018-12-20T17:16:16.043Z,3.45
2018-12-20T17:18:43.489Z,3.44
2018-12-20T17:21:10.976Z,3.45
2018-12-20T17:23:38.420Z,3.44
2018-12-20T17:26:05.928Z,3.40
2018-12-20T17:28:33.369Z,3.34
2018-12-20T17:31:00.834Z,3.35
2018-12-20T17:33:28.276Z,3.49
2018-12-20T17:35:55.880Z,3.39
2018-12-20T17:38:23.316Z,3.45
2018-12-20T17:40:50.761Z,3.49
2018-12-20T17:43:18.205Z,3.37
2018-12-20T17:45:45.632Z,3.39
2018-12-20T17:48:13.123Z,3.39
2018-12-20T17:50:40.535Z,3.51
2018-12-20T17:53:07.971Z,3.74
2018-12-20T17:55:35.425Z,3.84
2018-12-20T17:58:02.861Z,3.95
2018-12-20T18:00:30.307Z,4.09
2018-12-20T18:02:57.765Z,4.29
2018-12-20T18:05:25.201Z,4.47
2018-12-20T18:07:52.648Z,4.37
2018-12-20T18:10:20.076Z,4.32
2018-12-20T18:12:47.516Z,4.43
2018-12-20T18:15:14.961Z,4.40
2018-12-20T18:17:42.437Z,4.29
2018-12-20T18:20:09.895Z,4.25
2018-12-20T18:22:37.332Z,4.16
2018-12-20T18:25:04.771Z,4.37
2018-12-20T18:27:32.225Z,4.38
2018-12-20T18:29:59.664Z,4.29
2018-12-20T18:32:27.123Z,4.47
2018-12-20T18:34:54.676Z,4.49
2018-12-20T18:37:22.120Z,4.41
2018-12-20T18:39:49.579Z,4.34
2018-12-20T18:42:17.032Z,4.43
2018-12-20T18:44:44.524Z,4.47
2018-12-20T18:47:11.960Z,4.42
2018-12-20T18:49:47.322Z,4.53
2018-12-20T18:52:08.848Z,4.45
2018-12-20T18:54:36.288Z,4.48
2018-12-20T18:57:03.731Z,4.51
2018-12-20T18:59:31.260Z,4.43
2018-12-20T19:01:58.704Z,4.51
2018-12-20T19:04:26.153Z,4.43
2018-12-20T19:06:53.592Z,4.29
2018-12-20T19:09:21.097Z,4.24
2018-12-20T19:11:48.541Z,4.30
2018-12-20T19:14:16.358Z,4.38
2018-12-20T19:16:44.009Z,4.32
2018-12-20T19:19:11.460Z,4.32
2018-12-20T19:21:38.984Z,4.35
2018-12-20T19:24:06.512Z,4.38
2018-12-20T19:26:33.961Z,4.33
2018-12-20T19:29:01.409Z,4.42
2018-12-20T19:31:28.840Z,4.35
2018-12-20T19:33:56.285Z,4.34
2018-12-20T19:36:23.737Z,4.33
2018-12-20T19:38:51.200Z,4.38
2018-12-20T19:41:18.650Z,4.34
2018-12-20T19:43:46.092Z,4.33
2018-12-20T19:46:13.525Z,4.37
2018-12-20T19:48:40.964Z,4.25
2018-12-20T19:51:08.418Z,4.36
2018-12-20T19:53:35.868Z,4.41
2018-12-20T19:56:03.312Z,4.35
2018-12-20T19:58:30.760Z,4.25
2018-12-20T20:00:58.213Z,4.32
2018-12-20T20:03:25.683Z,4.31
2018-12-20T20:05:53.125Z,4.34
2018-12-20T20:08:20.572Z,4.28
2018-12-20T20:10:48.017Z,4.23
2018-12-20T20:13:19.212Z,4.25
2018-12-20T20:15:44.888Z,4.30
2018-12-20T20:18:12.339Z,4.32
2018-12-20T20:20:39.776Z,4.27
2018-12-20T20:23:07.227Z,4.18
2018-12-20T20:25:34.672Z,4.33
2018-12-20T20:28:02.112Z,4.33
2018-12-20T20:30:29.544Z,4.48
2018-12-20T20:32:56.986Z,4.49
2018-12-20T20:35:24.425Z,4.45
2018-12-20T20:37:51.867Z,4.55
2018-12-20T20:40:19.305Z,4.71
2018-12-20T20:42:46.812Z,4.85
2018-12-20T20:45:14.230Z,4.91
2018-12-20T20:47:41.659Z,4.92
2018-12-20T20:50:09.098Z,4.95
2018-12-20T20:52:36.569Z,4.95
2018-12-20T20:55:05.758Z,4.91
2018-12-20T20:57:33.331Z,4.98
2018-12-20T21:00:00.778Z,5.02
2018-12-20T21:02:28.214Z,4.98
2018-12-20T21:04:55.644Z,4.97
2018-12-20T21:07:23.088Z,4.95
2018-12-20T21:09:50.526Z,4.82
2018-12-20T21:12:22.769Z,4.82
2018-12-20T21:14:52.430Z,4.93
2018-12-20T21:17:16.817Z,4.90
2018-12-20T21:19:44.264Z,4.93
2018-12-20T21:22:11.792Z,4.88
2018-12-20T21:24:39.231Z,4.94
2018-12-20T21:27:06.677Z,4.84
2018-12-20T21:29:34.111Z,4.83
2018-12-20T21:32:01.548Z,4.82
2018-12-20T21:34:28.998Z,4.77
2018-12-20T21:36:56.428Z,4.95
2018-12-20T21:39:23.865Z,4.99
2018-12-20T21:41:51.307Z,4.92
2018-12-20T21:44:18.747Z,4.87
2018-12-20T21:46:46.189Z,4.84
2018-12-20T21:49:13.635Z,4.78
2018-12-20T21:51:41.084Z,4.89
2018-12-20T21:54:08.512Z,4.98
2018-12-20T21:56:35.992Z,5.00
2018-12-20T21:59:03.428Z,5.04
2018-12-20T22:01:30.912Z,5.15
2018-12-20T22:03:58.344Z,4.98
2018-12-20T22:06:25.793Z,4.77
2018-12-20T22:08:53.236Z,4.71
2018-12-20T22:11:20.676Z,4.76
2018-12-20T22:13:48.116Z,4.61
2018-12-20T22:16:15.555Z,4.65
2018-12-20T22:18:43.001Z,4.60
2018-12-20T22:21:10.428Z,4.55
2018-12-20T22:23:37.881Z,4.48
2018-12-20T22:26:05.324Z,4.62
2018-12-20T22:28:32.768Z,4.71
2018-12-20T22:31:00.209Z,4.72
2018-12-20T22:33:27.644Z,4.72
2018-12-20T22:35:55.075Z,4.71
2018-12-20T22:38:22.583Z,4.78
2018-12-20T22:40:50.021Z,4.67
2018-12-20T22:43:17.453Z,4.66
2018-12-20T22:45:44.911Z,4.77
2018-12-20T22:48:12.341Z,4.75
2018-12-20T22:50:39.797Z,4.73
2018-12-20T22:53:07.309Z,4.83
2018-12-20T22:55:34.741Z,4.93
2018-12-20T22:58:02.189Z,4.92
2018-12-20T23:00:29.632Z,4.93
2018-12-20T23:02:57.060Z,5.17
2018-12-20T23:05:24.517Z,5.10
2018-12-20T23:07:51.936Z,5.25
2018-12-20T23:10:19.374Z,5.37
2018-12-20T23:12:46.806Z,5.35
2018-12-20T23:15:14.241Z,5.41
2018-12-20T23:17:41.671Z,5.58
2018-12-20T23:20:09.117Z,5.61
2018-12-20T23:22:36.540Z,5.63
2018-12-20T23:25:04.052Z,5.70
2018-12-20T23:27:31.485Z,5.72
2018-12-20T23:29:58.928Z,5.85
2018-12-20T23:32:26.364Z,5.87
2018-12-20T23:34:53.802Z,5.81
2018-12-20T23:37:21.227Z,5.68
2018-12-20T23:39:48.660Z,5.79
2018-12-20T23:42:16.148Z,5.72
2018-12-20T23:44:43.580Z,5.75
2018-12-20T23:47:11.012Z,5.81
2018-12-20T23:49:38.687Z,5.84
2018-12-20T23:52:06.197Z,5.91
2018-12-20T23:54:33.628Z,5.82
2018-12-20T23:57:01.064Z,5.73
2018-12-20T23:59:28.499Z,5.73
